sensor_id;sensor_type;location;lat;lon;timestamp;pressure;altitude;pressure_sealevel;temperature;humidity
60725;BME280;59881;36.722;-4.462;2023-04-29T00:00:24;100853.34;;;20.23;50.21
60725;BME280;59881;36.722;-4.462;2023-04-29T00:02:49;100915.94;;;20.39;49.90
60725;BME280;59881;36.722;-4.462;2023-04-29T00:05:15;100843.09;;;20.11;49.33
60725;BME280;59881;36.722;-4.462;2023-04-29T00:07:40;100689.22;;;19.39;49.12
60725;BME280;59881;36.722;-4.462;2023-04-29T00:10:07;100874.75;;;20.66;48.69
60725;BME280;59881;36.722;-4.462;2023-04-29T00:12:33;100854.38;;;20.73;48.44
60725;BME280;59881;36.722;-4.462;2023-04-29T00:14:59;100895.03;;;20.77;47.49
60725;BME280;59881;36.722;-4.462;2023-04-29T00:17:27;100927.16;;;20.77;47.67
60725;BME280;59881;36.722;-4.462;2023-04-29T00:19:52;100775.88;;;20.05;47.94
60725;BME280;59881;36.722;-4.462;2023-04-29T00:22:18;100885.91;;;20.53;48.30
60725;BME280;59881;36.722;-4.462;2023-04-29T00:24:46;100883.78;;;20.57;48.24
60725;BME280;59881;36.722;-4.462;2023-04-29T00:27:11;100918.63;;;20.73;48.02
60725;BME280;59881;36.722;-4.462;2023-04-29T00:29:37;100744.06;;;19.86;48.44
60725;BME280;59881;36.722;-4.462;2023-04-29T00:32:03;100871.94;;;20.76;48.47
60725;BME280;59881;36.722;-4.462;2023-04-29T00:34:29;100850.81;;;20.64;49.95
60725;BME280;59881;36.722;-4.462;2023-04-29T00:36:54;100894.25;;;20.50;51.73
60725;BME280;59881;36.722;-4.462;2023-04-29T00:39:20;100894.72;;;20.37;53.62
60725;BME280;59881;36.722;-4.462;2023-04-29T00:41:46;100817.88;;;19.79;54.33
60725;BME280;59881;36.722;-4.462;2023-04-29T00:44:11;100894.41;;;20.14;55.09
60725;BME280;59881;36.722;-4.462;2023-04-29T00:46:37;100812.25;;;19.64;56.06
60725;BME280;59881;36.722;-4.462;2023-04-29T00:49:02;100868.59;;;19.97;56.71
60725;BME280;59881;36.722;-4.462;2023-04-29T00:51:28;100878.44;;;19.88;57.09
60725;BME280;59881;36.722;-4.462;2023-04-29T00:53:54;100792.41;;;19.40;57.66
60725;BME280;59881;36.722;-4.462;2023-04-29T00:56:20;100839.44;;;19.77;58.06
60725;BME280;59881;36.722;-4.462;2023-04-29T00:58:47;100850.59;;;19.73;58.14
60725;BME280;59881;36.722;-4.462;2023-04-29T01:01:20;100713.63;;;18.92;58.52
60725;BME280;59881;36.722;-4.462;2023-04-29T01:03:46;100848.53;;;19.67;58.29
60725;BME280;59881;36.722;-4.462;2023-04-29T01:14:29;100771.69;;;19.16;59.34
60725;BME280;59881;36.722;-4.462;2023-04-29T01:16:59;100760.66;;;19.11;59.43
60725;BME280;59881;36.722;-4.462;2023-04-29T01:19:43;100686.78;;;18.76;59.33
60725;BME280;59881;36.722;-4.462;2023-04-29T01:22:12;100753.44;;;19.30;59.54
60725;BME280;59881;36.722;-4.462;2023-04-29T01:24:42;100728.56;;;19.03;59.95
60725;BME280;59881;36.722;-4.462;2023-04-29T01:33:35;100818.09;;;19.59;60.32
60725;BME280;59881;36.722;-4.462;2023-04-29T01:39:40;100811.03;;;19.58;60.49
60725;BME280;59881;36.722;-4.462;2023-04-29T01:42:24;100769.78;;;19.27;60.62
60725;BME280;59881;36.722;-4.462;2023-04-29T01:44:54;100833.09;;;19.60;60.84
60725;BME280;59881;36.722;-4.462;2023-04-29T01:47:21;100777.47;;;19.30;60.84
60725;BME280;59881;36.722;-4.462;2023-04-29T01:49:48;100509.81;;;17.79;60.08
60725;BME280;59881;36.722;-4.462;2023-04-29T01:52:14;100815.56;;;19.58;59.93
60725;BME280;59881;36.722;-4.462;2023-04-29T01:54:39;100817.00;;;19.52;59.41
60725;BME280;59881;36.722;-4.462;2023-04-29T01:57:05;100801.63;;;19.46;59.28
60725;BME280;59881;36.722;-4.462;2023-04-29T01:59:30;100717.19;;;19.01;58.93
60725;BME280;59881;36.722;-4.462;2023-04-29T02:01:56;100667.28;;;18.75;58.53
60725;BME280;59881;36.722;-4.462;2023-04-29T02:04:26;100786.72;;;19.43;58.25
60725;BME280;59881;36.722;-4.462;2023-04-29T02:06:52;100648.09;;;18.54;57.95
60725;BME280;59881;36.722;-4.462;2023-04-29T02:09:18;100800.94;;;19.44;58.01
60725;BME280;59881;36.722;-4.462;2023-04-29T02:11:44;100776.91;;;19.44;57.68
60725;BME280;59881;36.722;-4.462;2023-04-29T02:14:09;100753.69;;;19.44;57.82
60725;BME280;59881;36.722;-4.462;2023-04-29T02:16:36;100628.78;;;18.78;58.07
60725;BME280;59881;36.722;-4.462;2023-04-29T02:19:02;100690.41;;;19.11;57.59
60725;BME280;59881;36.722;-4.462;2023-04-29T02:21:28;100707.66;;;19.25;57.33
60725;BME280;59881;36.722;-4.462;2023-04-29T02:23:53;100728.34;;;19.22;57.34
60725;BME280;59881;36.722;-4.462;2023-04-29T02:26:19;100621.00;;;18.40;57.16
60725;BME280;59881;36.722;-4.462;2023-04-29T02:28:45;100696.03;;;18.81;57.21
60725;BME280;59881;36.722;-4.462;2023-04-29T02:31:10;100631.50;;;18.68;56.74
60725;BME280;59881;36.722;-4.462;2023-04-29T02:33:36;100656.66;;;18.84;56.54
60725;BME280;59881;36.722;-4.462;2023-04-29T02:36:02;100687.03;;;18.83;56.68
60725;BME280;59881;36.722;-4.462;2023-04-29T02:38:27;100593.06;;;18.27;56.01
60725;BME280;59881;36.722;-4.462;2023-04-29T02:40:53;100606.75;;;18.32;55.90
60725;BME280;59881;36.722;-4.462;2023-04-29T02:43:19;100732.84;;;18.96;55.60
60725;BME280;59881;36.722;-4.462;2023-04-29T02:45:44;100756.63;;;19.07;55.53
60725;BME280;59881;36.722;-4.462;2023-04-29T02:48:09;100649.25;;;18.51;55.28
60725;BME280;59881;36.722;-4.462;2023-04-29T02:50:35;100724.00;;;19.21;54.70
60725;BME280;59881;36.722;-4.462;2023-04-29T02:53:01;100724.84;;;19.22;54.80
60725;BME280;59881;36.722;-4.462;2023-04-29T02:55:26;100720.25;;;18.88;54.75
60725;BME280;59881;36.722;-4.462;2023-04-29T02:57:52;100792.75;;;19.19;54.34
60725;BME280;59881;36.722;-4.462;2023-04-29T03:00:17;100780.25;;;19.20;54.30
60725;BME280;59881;36.722;-4.462;2023-04-29T03:02:43;100721.63;;;18.92;54.34
60725;BME280;59881;36.722;-4.462;2023-04-29T03:05:08;100770.72;;;19.17;53.96
60725;BME280;59881;36.722;-4.462;2023-04-29T03:07:34;100791.53;;;19.14;53.27
60725;BME280;59881;36.722;-4.462;2023-04-29T03:09:59;100678.84;;;18.66;52.90
60725;BME280;59881;36.722;-4.462;2023-04-29T03:12:25;100787.53;;;19.36;52.62
60725;BME280;59881;36.722;-4.462;2023-04-29T03:14:51;100653.19;;;18.65;52.33
60725;BME280;59881;36.722;-4.462;2023-04-29T03:17:17;100608.47;;;18.41;52.22
60725;BME280;59881;36.722;-4.462;2023-04-29T03:19:43;100749.72;;;19.22;52.42
60725;BME280;59881;36.722;-4.462;2023-04-29T03:22:08;100678.50;;;18.79;52.27
60725;BME280;59881;36.722;-4.462;2023-04-29T03:24:36;100767.78;;;19.29;52.29
60725;BME280;59881;36.722;-4.462;2023-04-29T03:27:02;100616.81;;;18.38;51.96
60725;BME280;59881;36.722;-4.462;2023-04-29T03:29:29;100762.44;;;19.29;52.09
60725;BME280;59881;36.722;-4.462;2023-04-29T03:31:54;100755.28;;;19.29;51.94
60725;BME280;59881;36.722;-4.462;2023-04-29T03:34:21;100763.13;;;19.31;51.50
60725;BME280;59881;36.722;-4.462;2023-04-29T03:36:46;100757.47;;;19.34;51.52
60725;BME280;59881;36.722;-4.462;2023-04-29T03:39:12;100755.81;;;19.15;51.12
60725;BME280;59881;36.722;-4.462;2023-04-29T03:41:37;100754.09;;;19.32;50.90
60725;BME280;59881;36.722;-4.462;2023-04-29T03:44:04;100684.22;;;18.84;50.86
60725;BME280;59881;36.722;-4.462;2023-04-29T03:46:29;100718.41;;;19.07;50.48
60725;BME280;59881;36.722;-4.462;2023-04-29T03:48:55;100748.50;;;19.43;50.15
60725;BME280;59881;36.722;-4.462;2023-04-29T03:51:22;100728.81;;;19.44;50.25
60725;BME280;59881;36.722;-4.462;2023-04-29T03:53:48;100688.19;;;19.06;49.88
60725;BME280;59881;36.722;-4.462;2023-04-29T03:56:14;100727.81;;;19.45;50.10
60725;BME280;59881;36.722;-4.462;2023-04-29T03:58:40;100548.63;;;18.35;50.04
60725;BME280;59881;36.722;-4.462;2023-04-29T04:01:06;100750.19;;;19.44;50.10
60725;BME280;59881;36.722;-4.462;2023-04-29T04:03:31;100713.63;;;19.44;49.96
60725;BME280;59881;36.722;-4.462;2023-04-29T04:05:57;100639.97;;;18.81;49.90
60725;BME280;59881;36.722;-4.462;2023-04-29T04:08:22;100723.47;;;19.44;49.77
60725;BME280;59881;36.722;-4.462;2023-04-29T04:10:48;100709.25;;;19.43;50.03
60725;BME280;59881;36.722;-4.462;2023-04-29T04:13:13;100507.59;;;18.10;49.84
60725;BME280;59881;36.722;-4.462;2023-04-29T04:15:39;100554.47;;;18.39;50.38
60725;BME280;59881;36.722;-4.462;2023-04-29T04:18:06;100653.94;;;19.01;50.36
60725;BME280;59881;36.722;-4.462;2023-04-29T04:20:32;100649.75;;;18.99;50.40
60725;BME280;59881;36.722;-4.462;2023-04-29T04:22:57;100682.41;;;19.11;50.55
60725;BME280;59881;36.722;-4.462;2023-04-29T04:25:23;100633.13;;;18.79;50.92
60725;BME280;59881;36.722;-4.462;2023-04-29T04:27:48;100672.22;;;18.88;51.30
60725;BME280;59881;36.722;-4.462;2023-04-29T04:30:14;100687.25;;;18.89;51.12
60725;BME280;59881;36.722;-4.462;2023-04-29T04:32:39;100699.50;;;19.00;51.43
60725;BME280;59881;36.722;-4.462;2023-04-29T04:35:05;100705.00;;;18.98;51.45
60725;BME280;59881;36.722;-4.462;2023-04-29T04:37:31;100715.81;;;18.97;51.71
60725;BME280;59881;36.722;-4.462;2023-04-29T04:39:57;100584.63;;;18.13;51.65
60725;BME280;59881;36.722;-4.462;2023-04-29T04:42:23;100715.94;;;18.87;51.68
60725;BME280;59881;36.722;-4.462;2023-04-29T04:44:48;100721.59;;;18.84;51.99
60725;BME280;59881;36.722;-4.462;2023-04-29T04:47:14;100716.69;;;18.79;51.79
60725;BME280;59881;36.722;-4.462;2023-04-29T04:49:40;100724.53;;;18.81;51.68
60725;BME280;59881;36.722;-4.462;2023-04-29T04:52:05;100725.22;;;18.83;51.34
60725;BME280;59881;36.722;-4.462;2023-04-29T04:54:31;100695.72;;;18.67;51.34
60725;BME280;59881;36.722;-4.462;2023-04-29T04:56:56;100681.50;;;18.58;50.95
60725;BME280;59881;36.722;-4.462;2023-04-29T04:59:22;100599.84;;;18.03;50.55
60725;BME280;59881;36.722;-4.462;2023-04-29T05:01:47;100721.84;;;18.99;50.75
60725;BME280;59881;36.722;-4.462;2023-04-29T05:04:13;100724.72;;;19.06;50.30
60725;BME280;59881;36.722;-4.462;2023-04-29T05:06:39;100589.22;;;18.29;49.80
60725;BME280;59881;36.722;-4.462;2023-04-29T05:09:05;100727.00;;;19.18;49.80
60725;BME280;59881;36.722;-4.462;2023-04-29T05:11:30;100630.03;;;18.48;49.32
60725;BME280;59881;36.722;-4.462;2023-04-29T05:13:56;100574.97;;;18.38;49.02
60725;BME280;59881;36.722;-4.462;2023-04-29T05:16:22;100686.31;;;18.98;49.19
60725;BME280;59881;36.722;-4.462;2023-04-29T05:18:47;100614.81;;;18.66;48.94
60725;BME280;59881;36.722;-4.462;2023-04-29T05:21:13;100737.09;;;19.33;48.90
60725;BME280;59881;36.722;-4.462;2023-04-29T05:23:38;100433.34;;;17.53;48.83
60725;BME280;59881;36.722;-4.462;2023-04-29T05:26:04;100692.91;;;19.12;48.72
60725;BME280;59881;36.722;-4.462;2023-04-29T05:28:29;100635.56;;;18.72;49.20
60725;BME280;59881;36.722;-4.462;2023-04-29T05:30:55;100731.31;;;19.19;49.27
60725;BME280;59881;36.722;-4.462;2023-04-29T05:33:20;100764.94;;;19.30;48.90
60725;BME280;59881;36.722;-4.462;2023-04-29T05:35:46;100744.09;;;19.34;48.87
60725;BME280;59881;36.722;-4.462;2023-04-29T05:38:12;100740.59;;;19.33;48.81
60725;BME280;59881;36.722;-4.462;2023-04-29T05:40:37;100487.81;;;17.77;48.83
60725;BME280;59881;36.722;-4.462;2023-04-29T05:43:03;100695.88;;;19.09;48.65
60725;BME280;59881;36.722;-4.462;2023-04-29T05:45:28;100760.56;;;19.47;48.59
60725;BME280;59881;36.722;-4.462;2023-04-29T05:47:54;100755.25;;;19.55;48.03
60725;BME280;59881;36.722;-4.462;2023-04-29T05:50:20;100760.47;;;19.65;48.25
60725;BME280;59881;36.722;-4.462;2023-04-29T05:52:45;100599.50;;;18.68;47.80
60725;BME280;59881;36.722;-4.462;2023-04-29T05:55:11;100554.72;;;18.54;47.38
60725;BME280;59881;36.722;-4.462;2023-04-29T05:57:36;100665.13;;;19.31;47.33
60725;BME280;59881;36.722;-4.462;2023-04-29T06:00:02;100771.19;;;20.08;47.14
60725;BME280;59881;36.722;-4.462;2023-04-29T06:02:28;100680.16;;;19.67;46.75
60725;BME280;59881;36.722;-4.462;2023-04-29T06:04:53;100733.94;;;20.06;46.10
60725;BME280;59881;36.722;-4.462;2023-04-29T06:07:19;100513.72;;;18.81;46.02
60725;BME280;59881;36.722;-4.462;2023-04-29T06:09:44;100623.19;;;19.66;45.66
60725;BME280;59881;36.722;-4.462;2023-04-29T06:12:10;100762.66;;;20.71;45.34
60725;BME280;59881;36.722;-4.462;2023-04-29T06:14:35;100757.00;;;20.91;44.73
60725;BME280;59881;36.722;-4.462;2023-04-29T06:17:01;100634.16;;;20.46;44.38
60725;BME280;59881;36.722;-4.462;2023-04-29T06:19:28;100720.91;;;21.34;44.08
60725;BME280;59881;36.722;-4.462;2023-04-29T06:21:53;100743.09;;;21.76;43.28
60725;BME280;59881;36.722;-4.462;2023-04-29T06:24:19;100738.53;;;22.16;42.74
60725;BME280;59881;36.722;-4.462;2023-04-29T06:26:44;100627.38;;;21.87;41.93
60725;BME280;59881;36.722;-4.462;2023-04-29T06:29:10;100742.88;;;22.94;41.08
60725;BME280;59881;36.722;-4.462;2023-04-29T06:31:35;100728.59;;;23.31;39.93
60725;BME280;59881;36.722;-4.462;2023-04-29T06:34:01;100750.75;;;23.63;38.96
60725;BME280;59881;36.722;-4.462;2023-04-29T06:36:26;100515.19;;;22.51;38.06
60725;BME280;59881;36.722;-4.462;2023-04-29T06:38:52;100531.94;;;22.83;37.89
60725;BME280;59881;36.722;-4.462;2023-04-29T06:41:17;100588.16;;;23.29;37.05
60725;BME280;59881;36.722;-4.462;2023-04-29T06:43:43;100756.31;;;24.28;37.14
60725;BME280;59881;36.722;-4.462;2023-04-29T06:46:09;100757.19;;;24.35;36.58
60725;BME280;59881;36.722;-4.462;2023-04-29T06:48:35;100756.69;;;24.46;36.39
60725;BME280;59881;36.722;-4.462;2023-04-29T06:51:01;100669.25;;;23.99;36.89
60725;BME280;59881;36.722;-4.462;2023-04-29T06:53:27;100754.97;;;24.53;36.59
60725;BME280;59881;36.722;-4.462;2023-04-29T06:55:53;100746.50;;;24.42;36.81
60725;BME280;59881;36.722;-4.462;2023-04-29T06:58:18;100761.75;;;24.34;37.01
60725;BME280;59881;36.722;-4.462;2023-04-29T07:00:45;100765.03;;;24.30;37.15
60725;BME280;59881;36.722;-4.462;2023-04-29T07:03:12;100633.56;;;23.39;37.21
60725;BME280;59881;36.722;-4.462;2023-04-29T07:05:37;100775.47;;;24.18;37.22
60725;BME280;59881;36.722;-4.462;2023-04-29T07:08:05;100783.53;;;24.18;36.98
60725;BME280;59881;36.722;-4.462;2023-04-29T07:10:30;100698.50;;;23.72;37.48
60725;BME280;59881;36.722;-4.462;2023-04-29T07:12:56;100639.03;;;23.46;37.02
60725;BME280;59881;36.722;-4.462;2023-04-29T07:15:21;100685.00;;;23.81;37.28
60725;BME280;59881;36.722;-4.462;2023-04-29T07:17:47;100722.25;;;23.99;37.14
60725;BME280;59881;36.722;-4.462;2023-04-29T07:20:13;100801.00;;;24.80;36.67
60725;BME280;59881;36.722;-4.462;2023-04-29T07:22:38;100795.28;;;24.90;36.72
60725;BME280;59881;36.722;-4.462;2023-04-29T07:25:04;100729.78;;;24.46;36.38
60725;BME280;59881;36.722;-4.462;2023-04-29T07:27:33;100684.31;;;24.51;36.17
60725;BME280;59881;36.722;-4.462;2023-04-29T07:30:03;100626.66;;;24.74;35.23
60725;BME280;59881;36.722;-4.462;2023-04-29T07:32:29;100751.94;;;26.24;34.31
60725;BME280;59881;36.722;-4.462;2023-04-29T07:34:57;100780.34;;;27.28;32.19
60725;BME280;59881;36.722;-4.462;2023-04-29T07:37:24;100586.97;;;26.66;30.93
60725;BME280;59881;36.722;-4.462;2023-04-29T07:39:50;100765.34;;;28.04;29.86
60725;BME280;59881;36.722;-4.462;2023-04-29T07:42:16;100773.53;;;28.29;29.59
60725;BME280;59881;36.722;-4.462;2023-04-29T07:44:41;100784.16;;;28.31;29.53
60725;BME280;59881;36.722;-4.462;2023-04-29T07:47:09;100802.25;;;27.92;29.46
60725;BME280;59881;36.722;-4.462;2023-04-29T07:49:34;100678.84;;;26.59;30.01
60725;BME280;59881;36.722;-4.462;2023-04-29T07:52:00;100807.75;;;26.98;30.46
60725;BME280;59881;36.722;-4.462;2023-04-29T07:54:26;100762.97;;;26.42;30.88
60725;BME280;59881;36.722;-4.462;2023-04-29T07:56:52;100815.41;;;26.61;31.12
60725;BME280;59881;36.722;-4.462;2023-04-29T07:59:17;100803.38;;;26.64;31.10
60725;BME280;59881;36.722;-4.462;2023-04-29T08:01:42;100802.56;;;26.83;31.18
60725;BME280;59881;36.722;-4.462;2023-04-29T08:04:08;100799.63;;;27.18;30.79
60725;BME280;59881;36.722;-4.462;2023-04-29T08:06:34;100662.63;;;26.79;30.32
60725;BME280;59881;36.722;-4.462;2023-04-29T08:09:00;100773.97;;;27.81;29.88
60725;BME280;59881;36.722;-4.462;2023-04-29T08:11:26;100744.22;;;27.74;29.71
60725;BME280;59881;36.722;-4.462;2023-04-29T08:13:52;100699.34;;;27.47;29.95
60725;BME280;59881;36.722;-4.462;2023-04-29T08:16:18;100761.22;;;27.95;29.74
60725;BME280;59881;36.722;-4.462;2023-04-29T08:18:43;100726.09;;;28.20;28.91
60725;BME280;59881;36.722;-4.462;2023-04-29T08:21:09;100675.31;;;29.16;27.75
60725;BME280;59881;36.722;-4.462;2023-04-29T08:23:37;100776.31;;;30.70;26.65
60725;BME280;59881;36.722;-4.462;2023-04-29T08:26:03;100795.41;;;31.06;26.23
60725;BME280;59881;36.722;-4.462;2023-04-29T08:28:29;100787.75;;;31.03;26.32
60725;BME280;59881;36.722;-4.462;2023-04-29T08:30:54;100648.81;;;29.85;26.04
60725;BME280;59881;36.722;-4.462;2023-04-29T08:33:21;100597.75;;;29.08;26.95
60725;BME280;59881;36.722;-4.462;2023-04-29T08:35:46;100735.69;;;29.48;27.75
60725;BME280;59881;36.722;-4.462;2023-04-29T08:38:12;100786.50;;;29.41;28.07
60725;BME280;59881;36.722;-4.462;2023-04-29T08:40:43;100782.63;;;29.12;28.43
60725;BME280;59881;36.722;-4.462;2023-04-29T08:43:15;100800.22;;;28.96;28.67
60725;BME280;59881;36.722;-4.462;2023-04-29T08:45:42;100782.19;;;29.08;29.09
60725;BME280;59881;36.722;-4.462;2023-04-29T08:48:08;100759.91;;;29.49;28.19
60725;BME280;59881;36.722;-4.462;2023-04-29T08:50:38;100713.06;;;30.21;27.29
60725;BME280;59881;36.722;-4.462;2023-04-29T08:53:09;100769.13;;;31.82;26.40
60725;BME280;59881;36.722;-4.462;2023-04-29T08:55:36;100801.09;;;33.79;24.61
60725;BME280;59881;36.722;-4.462;2023-04-29T08:58:04;100795.53;;;35.95;22.03
60725;BME280;59881;36.722;-4.462;2023-04-29T09:00:31;100759.66;;;37.40;20.44
60725;BME280;59881;36.722;-4.462;2023-04-29T09:02:57;100754.81;;;38.32;19.37
60725;BME280;59881;36.722;-4.462;2023-04-29T09:05:25;100750.44;;;38.30;18.56
60725;BME280;59881;36.722;-4.462;2023-04-29T09:07:51;100752.31;;;37.05;19.16
60725;BME280;59881;36.722;-4.462;2023-04-29T09:10:17;100702.13;;;36.74;19.46
60725;BME280;59881;36.722;-4.462;2023-04-29T09:12:43;100787.13;;;38.16;18.45
60725;BME280;59881;36.722;-4.462;2023-04-29T09:15:09;100762.31;;;37.71;18.63
60725;BME280;59881;36.722;-4.462;2023-04-29T09:17:41;100778.72;;;37.92;18.64
60725;BME280;59881;36.722;-4.462;2023-04-29T09:20:27;100784.25;;;37.81;18.67
60725;BME280;59881;36.722;-4.462;2023-04-29T09:22:55;100779.25;;;36.98;18.99
60725;BME280;59881;36.722;-4.462;2023-04-29T09:25:21;100776.53;;;35.68;19.28
60725;BME280;59881;36.722;-4.462;2023-04-29T09:27:47;100689.19;;;35.19;19.55
60725;BME280;59881;36.722;-4.462;2023-04-29T09:30:13;100669.31;;;35.54;19.42
60725;BME280;59881;36.722;-4.462;2023-04-29T09:32:41;100789.66;;;36.44;19.07
60725;BME280;59881;36.722;-4.462;2023-04-29T09:35:23;100790.19;;;39.89;17.57
60725;BME280;59881;36.722;-4.462;2023-04-29T09:37:53;100800.78;;;42.97;14.59
60725;BME280;59881;36.722;-4.462;2023-04-29T09:40:33;100808.84;;;44.57;12.86
60725;BME280;59881;36.722;-4.462;2023-04-29T09:43:00;100756.16;;;45.34;11.77
60725;BME280;59881;36.722;-4.462;2023-04-29T09:45:39;100812.31;;;46.29;11.80
60725;BME280;59881;36.722;-4.462;2023-04-29T09:48:07;100802.84;;;47.33;11.14
60725;BME280;59881;36.722;-4.462;2023-04-29T09:50:36;100782.91;;;47.84;10.69
60725;BME280;59881;36.722;-4.462;2023-04-29T09:53:03;100797.78;;;48.85;10.05
60725;BME280;59881;36.722;-4.462;2023-04-29T09:55:29;100796.28;;;49.55;9.53
60725;BME280;59881;36.722;-4.462;2023-04-29T09:57:56;100778.13;;;49.64;8.80
60725;BME280;59881;36.722;-4.462;2023-04-29T10:00:22;100811.97;;;49.75;9.17
60725;BME280;59881;36.722;-4.462;2023-04-29T10:02:48;100711.59;;;49.38;9.20
60725;BME280;59881;36.722;-4.462;2023-04-29T10:05:16;100816.88;;;49.46;9.26
60725;BME280;59881;36.722;-4.462;2023-04-29T10:07:42;100819.81;;;48.58;9.90
60725;BME280;59881;36.722;-4.462;2023-04-29T10:10:10;100819.81;;;47.40;10.28
60725;BME280;59881;36.722;-4.462;2023-04-29T10:12:39;100816.38;;;46.31;10.87
60725;BME280;59881;36.722;-4.462;2023-04-29T10:17:45;100848.41;;;49.43;9.67
60725;BME280;59881;36.722;-4.462;2023-04-29T10:20:13;100830.97;;;50.40;8.94
60725;BME280;59881;36.722;-4.462;2023-04-29T10:22:47;100849.69;;;51.21;8.35
60725;BME280;59881;36.722;-4.462;2023-04-29T10:25:15;100827.75;;;51.30;8.26
60725;BME280;59881;36.722;-4.462;2023-04-29T10:27:42;100780.50;;;50.83;8.86
60725;BME280;59881;36.722;-4.462;2023-04-29T10:30:14;100867.44;;;51.06;8.59
60725;BME280;59881;36.722;-4.462;2023-04-29T10:32:41;100839.47;;;49.89;9.05
60725;BME280;59881;36.722;-4.462;2023-04-29T10:35:09;100822.94;;;48.57;10.11
60725;BME280;59881;36.722;-4.462;2023-04-29T10:37:38;100830.84;;;47.86;10.18
60725;BME280;59881;36.722;-4.462;2023-04-29T10:40:26;100818.38;;;46.10;11.06
60725;BME280;59881;36.722;-4.462;2023-04-29T10:42:55;100759.38;;;42.24;13.33
60725;BME280;59881;36.722;-4.462;2023-04-29T10:45:24;100817.81;;;40.27;15.52
60725;BME280;59881;36.722;-4.462;2023-04-29T10:53:17;100813.78;;;36.53;17.24
60725;BME280;59881;36.722;-4.462;2023-04-29T10:55:46;100818.13;;;36.18;17.70
60725;BME280;59881;36.722;-4.462;2023-04-29T10:58:39;100809.28;;;36.00;17.55
60725;BME280;59881;36.722;-4.462;2023-04-29T11:01:05;100816.19;;;35.60;17.88
60725;BME280;59881;36.722;-4.462;2023-04-29T11:03:52;100823.03;;;35.15;18.42
60725;BME280;59881;36.722;-4.462;2023-04-29T11:06:41;100817.81;;;34.81;18.98
60725;BME280;59881;36.722;-4.462;2023-04-29T11:14:18;100844.50;;;33.98;20.19
60725;BME280;59881;36.722;-4.462;2023-04-29T11:16:52;100820.38;;;33.68;19.86
60725;BME280;59881;36.722;-4.462;2023-04-29T11:19:18;100831.34;;;33.56;19.96
60725;BME280;59881;36.722;-4.462;2023-04-29T11:21:45;100808.41;;;33.35;20.28
60725;BME280;59881;36.722;-4.462;2023-04-29T11:24:12;100796.84;;;33.28;20.69
60725;BME280;59881;36.722;-4.462;2023-04-29T11:26:40;100796.78;;;33.45;20.90
60725;BME280;59881;36.722;-4.462;2023-04-29T11:29:07;100793.00;;;33.29;20.58
60725;BME280;59881;36.722;-4.462;2023-04-29T11:31:36;100763.66;;;33.02;21.19
60725;BME280;59881;36.722;-4.462;2023-04-29T11:34:04;100692.34;;;32.60;21.98
60725;BME280;59881;36.722;-4.462;2023-04-29T11:36:31;100743.09;;;32.77;22.43
60725;BME280;59881;36.722;-4.462;2023-04-29T11:38:59;100628.63;;;32.32;22.91
60725;BME280;59881;36.722;-4.462;2023-04-29T11:41:25;100738.34;;;33.24;22.65
60725;BME280;59881;36.722;-4.462;2023-04-29T11:43:58;100628.31;;;32.62;22.92
60725;BME280;59881;36.722;-4.462;2023-04-29T11:46:24;100748.00;;;33.31;23.29
60725;BME280;59881;36.722;-4.462;2023-04-29T11:48:50;100742.88;;;33.35;23.14
60725;BME280;59881;36.722;-4.462;2023-04-29T11:51:17;100747.16;;;33.48;23.47
60725;BME280;59881;36.722;-4.462;2023-04-29T11:53:46;100714.88;;;33.45;22.79
60725;BME280;59881;36.722;-4.462;2023-04-29T11:56:12;100633.16;;;32.77;22.82
60725;BME280;59881;36.722;-4.462;2023-04-29T11:58:37;100750.44;;;33.94;22.45
60725;BME280;59881;36.722;-4.462;2023-04-29T12:01:03;100759.97;;;34.13;22.15
60725;BME280;59881;36.722;-4.462;2023-04-29T12:03:31;100754.44;;;34.08;21.60
60725;BME280;59881;36.722;-4.462;2023-04-29T12:05:57;100690.09;;;33.51;21.95
60725;BME280;59881;36.722;-4.462;2023-04-29T12:08:24;100699.41;;;33.11;21.70
60725;BME280;59881;36.722;-4.462;2023-04-29T12:10:55;100701.19;;;32.67;23.03
60725;BME280;59881;36.722;-4.462;2023-04-29T12:13:23;100746.91;;;32.48;24.33
60725;BME280;59881;36.722;-4.462;2023-04-29T12:15:49;100700.53;;;31.85;24.49
60725;BME280;59881;36.722;-4.462;2023-04-29T12:18:17;100716.47;;;31.65;24.11
60725;BME280;59881;36.722;-4.462;2023-04-29T12:20:43;100745.78;;;31.74;24.54
60725;BME280;59881;36.722;-4.462;2023-04-29T12:23:21;100759.81;;;31.66;24.44
60725;BME280;59881;36.722;-4.462;2023-04-29T12:25:52;100674.88;;;30.82;24.92
60725;BME280;59881;36.722;-4.462;2023-04-29T12:28:18;100724.09;;;31.16;24.83
60725;BME280;59881;36.722;-4.462;2023-04-29T12:30:48;100752.50;;;31.20;24.89
60725;BME280;59881;36.722;-4.462;2023-04-29T12:33:17;100749.19;;;31.18;25.34
60725;BME280;59881;36.722;-4.462;2023-04-29T12:35:44;100727.66;;;30.92;25.21
60725;BME280;59881;36.722;-4.462;2023-04-29T12:38:09;100728.22;;;30.71;26.01
60725;BME280;59881;36.722;-4.462;2023-04-29T12:40:35;100537.25;;;29.26;27.10
60725;BME280;59881;36.722;-4.462;2023-04-29T12:43:07;100663.22;;;29.85;27.32
60725;BME280;59881;36.722;-4.462;2023-04-29T12:45:33;100714.75;;;30.04;28.17
60725;BME280;59881;36.722;-4.462;2023-04-29T12:48:00;100745.00;;;30.07;28.28
60725;BME280;59881;36.722;-4.462;2023-04-29T12:50:36;100738.00;;;30.00;28.02
60725;BME280;59881;36.722;-4.462;2023-04-29T12:53:08;100717.34;;;29.99;26.42
60725;BME280;59881;36.722;-4.462;2023-04-29T12:55:35;100720.91;;;30.11;26.74
60725;BME280;59881;36.722;-4.462;2023-04-29T12:58:01;100741.63;;;30.24;26.19
60725;BME280;59881;36.722;-4.462;2023-04-29T13:00:27;100738.47;;;30.27;25.94
60725;BME280;59881;36.722;-4.462;2023-04-29T13:02:53;100649.13;;;29.77;25.67
60725;BME280;59881;36.722;-4.462;2023-04-29T13:05:18;100734.41;;;30.36;25.09
60725;BME280;59881;36.722;-4.462;2023-04-29T13:07:44;100711.47;;;30.32;24.71
60725;BME280;59881;36.722;-4.462;2023-04-29T13:10:09;100735.63;;;30.64;24.33